Time;durP1;ratioP1;P1;durP2;ratioP2;P2;SDS_P1;SDS_P2;PMS_P1;PMS_P2;Temp;Humidity;BMP_temperature;BMP_pressure;BME280_temperature;BME280_humidity;BME280_pressure;Samples;Min_cycle;Max_cycle;Signal;HPM_P1;HPM_P2
2023/04/28 00:03:18;;;;;;;;;;;22.30;36.50;;;;;;20919844;28;20370;-55
2023/04/28 00:13:19;;;;;;;;;;;22.20;36.90;;;;;;20919677;28;20019;-56
2023/04/28 00:23:21;;;;;;;;;;;21.90;37.30;;;;;;20917237;28;19921;-57
2023/04/28 00:33:22;;;;;;;;;;;21.70;37.60;;;;;;20917201;28;19921;-55
2023/04/28 00:43:23;;;;;;;;;;;21.70;37.70;;;;;;20916767;28;19920;-55
2023/04/28 00:53:25;;;;;;;;;;;21.40;38.00;;;;;;20916294;28;19921;-55
2023/04/28 01:03:26;;;;;;;;;;;21.30;38.40;;;;;;20915411;28;19920;-56
2023/04/28 01:13:27;;;;;;;;;;;21.10;38.90;;;;;;20913534;28;19928;-55
2023/04/28 01:23:29;;;;;;;;;;;21.00;39.20;;;;;;20912731;28;19921;-55
2023/04/28 01:33:31;;;;;;;;;;;20.70;39.60;;;;;;20913518;28;20015;-56
2023/04/28 01:43:33;;;;;;;;;;;20.60;40.40;;;;;;20911645;28;19924;-55
2023/04/28 01:53:35;;;;;;;;;;;20.60;40.60;;;;;;20923767;28;19920;-55
2023/04/28 02:03:36;;;;;;;;;;;20.40;41.00;;;;;;20929319;28;19928;-53
2023/04/28 02:13:37;;;;;;;;;;;20.30;41.40;;;;;;20928518;28;19920;-54
2023/04/28 02:23:39;;;;;;;;;;;20.10;41.60;;;;;;20927536;28;19928;-55
2023/04/28 02:33:43;;;;;;;;;;;20.00;41.90;;;;;;20926207;28;19920;-55
2023/04/28 02:43:45;;;;;;;;;;;19.90;42.10;;;;;;20924971;28;19924;-54
2023/04/28 02:53:46;;;;;;;;;;;19.90;41.90;;;;;;20924176;28;19974;-55
2023/04/28 03:03:47;;;;;;;;;;;19.90;42.10;;;;;;20921992;28;19966;-56
2023/04/28 03:13:49;;;;;;;;;;;19.80;42.20;;;;;;20921900;28;19921;-55
2023/04/28 03:23:50;;;;;;;;;;;19.80;42.40;;;;;;20921932;28;19966;-56
2023/04/28 03:33:52;;;;;;;;;;;19.90;42.00;;;;;;20920873;28;20019;-56
2023/04/28 03:43:55;;;;;;;;;;;19.90;42.40;;;;;;20920229;28;19921;-55
2023/04/28 03:53:57;;;;;;;;;;;19.70;43.10;;;;;;20920821;28;19921;-55
2023/04/28 04:03:58;;;;;;;;;;;19.60;42.90;;;;;;20918993;28;19974;-56
2023/04/28 04:13:59;;;;;;;;;;;19.60;42.80;;;;;;20917050;28;19956;-55
2023/04/28 04:24:01;;;;;;;;;;;19.70;43.20;;;;;;20915462;28;19921;-56
2023/04/28 04:34:02;;;;;;;;;;;19.40;43.80;;;;;;20916008;28;20016;-55
2023/04/28 04:44:04;;;;;;;;;;;19.30;43.80;;;;;;20915258;28;19946;-54
2023/04/28 04:54:05;;;;;;;;;;;19.20;43.80;;;;;;20915855;28;20374;-55
2023/04/28 05:04:07;;;;;;;;;;;19.20;43.70;;;;;;20913168;28;19920;-55
2023/04/28 05:14:08;;;;;;;;;;;19.30;43.50;;;;;;20913839;28;19921;-56
2023/04/28 05:24:10;;;;;;;;;;;19.40;43.10;;;;;;20911770;28;19928;-57
2023/04/28 05:34:11;;;;;;;;;;;19.60;43.10;;;;;;20912778;28;20358;-57
2023/04/28 05:44:12;;;;;;;;;;;19.70;42.90;;;;;;20912360;28;19920;-55
2023/04/28 05:54:14;;;;;;;;;;;19.80;42.90;;;;;;20910197;28;19924;-55
2023/04/28 06:04:15;;;;;;;;;;;19.90;42.90;;;;;;20911388;28;20237;-55
2023/04/28 06:14:17;;;;;;;;;;;20.00;43.30;;;;;;20910403;28;19928;-54
2023/04/28 06:24:18;;;;;;;;;;;20.00;43.30;;;;;;20911572;28;19921;-55
2023/04/28 06:34:19;;;;;;;;;;;20.00;43.80;;;;;;20911843;28;19924;-56
2023/04/28 06:44:21;;;;;;;;;;;20.20;42.60;;;;;;20926560;28;20286;-56
2023/04/28 06:54:22;;;;;;;;;;;20.40;42.30;;;;;;20924027;28;19920;-55
2023/04/28 07:04:23;;;;;;;;;;;20.70;41.70;;;;;;20923892;28;19921;-56
2023/04/28 07:14:25;;;;;;;;;;;20.90;40.40;;;;;;20923461;28;19963;-56
2023/04/28 07:24:26;;;;;;;;;;;21.20;39.00;;;;;;20923123;28;19921;-55
2023/04/28 07:34:28;;;;;;;;;;;21.30;38.60;;;;;;20920484;28;19975;-57
2023/04/28 07:44:29;;;;;;;;;;;21.50;38.40;;;;;;20920805;28;20351;-56
2023/04/28 07:54:30;;;;;;;;;;;21.90;38.20;;;;;;20919553;28;20384;-55
2023/04/28 08:04:33;;;;;;;;;;;22.20;38.00;;;;;;20917813;28;19971;-56
2023/04/28 08:14:34;;;;;;;;;;;22.50;38.00;;;;;;20918644;28;19925;-59
2023/04/28 08:24:36;;;;;;;;;;;22.80;37.30;;;;;;20918802;28;19921;-55
2023/04/28 08:34:37;;;;;;;;;;;23.10;37.00;;;;;;20916587;28;19927;-56
2023/04/28 08:44:39;;;;;;;;;;;23.30;37.00;;;;;;20916889;28;19920;-56
2023/04/28 08:54:40;;;;;;;;;;;23.60;36.60;;;;;;20916278;28;19943;-56
2023/04/28 09:04:42;;;;;;;;;;;23.70;36.80;;;;;;20914817;28;19921;-57
2023/04/28 09:14:43;;;;;;;;;;;24.10;36.20;;;;;;20914627;28;19921;-56
2023/04/28 09:24:45;;;;;;;;;;;24.50;35.80;;;;;;20912971;28;19924;-56
2023/04/28 09:34:48;;;;;;;;;;;24.60;35.90;;;;;;20912563;28;19927;-59
2023/04/28 09:44:52;;;;;;;;;;;24.70;35.70;;;;;;20873738;28;19920;-58
2023/04/28 09:54:55;;;;;;;;;;;24.90;35.60;;;;;;20828895;28;19920;-58
2023/04/28 10:04:56;;;;;;;;;;;25.30;35.20;;;;;;20826683;28;19920;-58
2023/04/28 10:14:58;;;;;;;;;;;25.00;36.10;;;;;;20834842;28;20326;-60
2023/04/28 10:25:12;;;;;;;;;;;25.10;35.60;;;;;;20829775;28;19951;-58
2023/04/28 10:35:19;;;;;;;;;;;25.60;35.30;;;;;;20833341;28;20432;-60
2023/04/28 10:45:39;;;;;;;;;;;26.00;34.20;;;;;;20834017;28;20063;-59
2023/04/28 10:55:41;;;;;;;;;;;26.40;33.90;;;;;;20834590;28;19921;-58
2023/04/28 11:06:02;;;;;;;;;;;26.70;33.30;;;;;;20829525;28;19928;-59
2023/04/28 11:16:04;;;;;;;;;;;27.40;32.30;;;;;;20833186;28;20255;-60
2023/04/28 11:26:05;;;;;;;;;;;27.70;31.70;;;;;;20829587;28;19921;-59
2023/04/28 11:36:06;;;;;;;;;;;28.10;29.90;;;;;;20836869;28;19921;-58
2023/04/28 11:46:08;;;;;;;;;;;28.80;28.50;;;;;;20836414;28;19928;-62
2023/04/28 11:56:09;;;;;;;;;;;29.00;27.50;;;;;;20837771;28;19921;-56
2023/04/28 12:06:10;;;;;;;;;;;29.20;28.20;;;;;;20837219;28;19921;-58
2023/04/28 12:16:12;;;;;;;;;;;29.40;26.80;;;;;;20835965;28;19941;-56
2023/04/28 12:26:24;;;;;;;;;;;29.70;26.50;;;;;;20836474;28;19921;-56
2023/04/28 12:36:25;;;;;;;;;;;29.70;26.70;;;;;;20833040;28;19924;-56
2023/04/28 12:46:26;;;;;;;;;;;29.80;25.60;;;;;;20833329;28;19921;-57
2023/04/28 12:56:27;;;;;;;;;;;30.20;25.50;;;;;;20832329;28;19928;-56
2023/04/28 13:06:29;;;;;;;;;;;30.30;24.20;;;;;;20832866;28;20298;-57
2023/04/28 13:16:30;;;;;;;;;;;30.40;23.70;;;;;;20832205;28;19928;-56
2023/04/28 13:26:31;;;;;;;;;;;30.60;22.70;;;;;;20830807;28;19925;-56
2023/04/28 13:36:33;;;;;;;;;;;30.60;22.60;;;;;;20830779;28;19921;-58
2023/04/28 13:46:34;;;;;;;;;;;30.60;21.40;;;;;;20840540;28;19921;-57
2023/04/28 13:56:36;;;;;;;;;;;31.00;21.30;;;;;;20858771;28;20342;-57
2023/04/28 14:06:37;;;;;;;;;;;30.70;21.50;;;;;;20857822;28;19921;-57
2023/04/28 14:16:38;;;;;;;;;;;30.60;21.70;;;;;;20857048;28;20413;-59
2023/04/28 14:26:42;;;;;;;;;;;30.40;21.80;;;;;;20856894;28;20042;-58
2023/04/28 14:36:43;;;;;;;;;;;30.60;22.10;;;;;;20853915;28;19921;-58
2023/04/28 14:46:45;;;;;;;;;;;30.40;22.50;;;;;;20853848;28;19931;-57
2023/04/28 14:56:49;;;;;;;;;;;30.40;22.90;;;;;;20850475;28;19921;-59
2023/04/28 15:06:51;;;;;;;;;;;30.40;22.90;;;;;;20839674;28;19925;-58
2023/04/28 15:16:52;;;;;;;;;;;30.60;23.00;;;;;;20879351;28;20378;-56
2023/04/28 15:26:53;;;;;;;;;;;30.80;22.90;;;;;;20878034;28;19924;-60
2023/04/28 15:36:55;;;;;;;;;;;31.10;22.30;;;;;;20874595;28;19931;-56
2023/04/28 15:46:56;;;;;;;;;;;30.90;22.90;;;;;;20863790;28;19921;-57
2023/04/28 15:56:58;;;;;;;;;;;30.50;24.40;;;;;;20847575;28;19921;-56
2023/04/28 16:07:01;;;;;;;;;;;30.30;24.10;;;;;;20860576;28;19921;-58
2023/04/28 16:17:03;;;;;;;;;;;30.10;24.20;;;;;;20851990;28;20290;-56
2023/04/28 16:27:04;;;;;;;;;;;29.80;24.70;;;;;;20835125;28;19921;-55
2023/04/28 16:37:06;;;;;;;;;;;29.60;24.90;;;;;;20830984;28;19921;-57
2023/04/28 16:47:07;;;;;;;;;;;29.60;24.40;;;;;;20833689;28;19956;-58
2023/04/28 16:57:09;;;;;;;;;;;29.40;23.70;;;;;;20847416;28;19921;-56
2023/04/28 17:07:10;;;;;;;;;;;29.30;24.00;;;;;;20833705;28;19921;-56
2023/04/28 17:17:11;;;;;;;;;;;29.30;24.10;;;;;;20831035;28;19975;-58
2023/04/28 17:27:13;;;;;;;;;;;29.20;24.90;;;;;;20826574;28;19921;-58
2023/04/28 17:37:14;;;;;;;;;;;29.40;24.70;;;;;;20864724;28;19927;-56
2023/04/28 17:47:16;;;;;;;;;;;29.60;25.20;;;;;;20844308;28;19925;-58
2023/04/28 17:57:17;;;;;;;;;;;29.40;24.90;;;;;;20822993;28;19921;-56
2023/04/28 18:07:19;;;;;;;;;;;29.10;25.40;;;;;;20821031;28;20427;-57
2023/04/28 18:17:21;;;;;;;;;;;29.10;25.50;;;;;;20817561;28;20290;-57
2023/04/28 18:27:23;;;;;;;;;;;29.00;25.70;;;;;;20818842;28;19921;-58
2023/04/28 18:37:24;;;;;;;;;;;28.90;25.90;;;;;;20836330;28;19936;-58
2023/04/28 18:47:26;;;;;;;;;;;28.70;26.30;;;;;;20835790;28;20341;-57
2023/04/28 18:57:27;;;;;;;;;;;28.50;26.80;;;;;;20833957;28;19921;-57
2023/04/28 19:07:28;;;;;;;;;;;28.30;26.80;;;;;;20836971;28;19944;-58
2023/04/28 19:17:30;;;;;;;;;;;28.10;26.80;;;;;;20840070;28;19943;-55
2023/04/28 19:27:33;;;;;;;;;;;28.00;27.10;;;;;;20840322;28;20400;-58
2023/04/28 19:37:34;;;;;;;;;;;27.80;27.40;;;;;;20837908;28;19927;-57
2023/04/28 19:47:36;;;;;;;;;;;27.70;27.50;;;;;;20836546;28;19925;-61
2023/04/28 19:57:37;;;;;;;;;;;27.60;27.60;;;;;;20837568;28;20393;-57
2023/04/28 20:07:39;;;;;;;;;;;27.40;27.70;;;;;;20835424;28;19927;-56
2023/04/28 20:17:41;;;;;;;;;;;27.20;27.90;;;;;;20834199;28;19941;-57
2023/04/28 20:27:44;;;;;;;;;;;27.10;28.20;;;;;;20834709;28;19975;-57
2023/04/28 20:37:45;;;;;;;;;;;27.00;27.80;;;;;;20834424;28;19986;-57
2023/04/28 20:47:46;;;;;;;;;;;26.80;28.00;;;;;;20834416;28;19997;-56
2023/04/28 20:57:48;;;;;;;;;;;26.80;28.00;;;;;;20831336;28;19921;-57
2023/04/28 21:07:49;;;;;;;;;;;26.70;27.90;;;;;;20830735;28;19920;-56
2023/04/28 21:17:50;;;;;;;;;;;26.60;28.00;;;;;;20831330;28;19928;-58
2023/04/28 21:27:52;;;;;;;;;;;26.60;28.00;;;;;;20832291;28;19921;-57
2023/04/28 21:37:53;;;;;;;;;;;26.60;29.10;;;;;;20830427;28;19925;-56
2023/04/28 21:47:55;;;;;;;;;;;26.40;29.50;;;;;;20829825;28;19928;-59
2023/04/28 21:57:59;;;;;;;;;;;26.30;29.80;;;;;;20830538;28;19928;-57
2023/04/28 22:08:00;;;;;;;;;;;26.10;30.20;;;;;;20835741;28;19921;-56
2023/04/28 22:18:01;;;;;;;;;;;25.90;30.60;;;;;;20845791;28;20283;-57
2023/04/28 22:28:03;;;;;;;;;;;25.70;30.50;;;;;;20846126;28;20279;-56
2023/04/28 22:38:05;;;;;;;;;;;25.60;31.30;;;;;;20845346;28;19928;-57
2023/04/28 22:48:06;;;;;;;;;;;25.40;31.90;;;;;;20845023;28;19921;-57
2023/04/28 22:58:07;;;;;;;;;;;25.20;32.60;;;;;;20843870;28;20297;-58
2023/04/28 23:08:09;;;;;;;;;;;25.20;32.90;;;;;;20842212;28;19940;-55
2023/04/28 23:18:10;;;;;;;;;;;25.10;32.60;;;;;;20840805;28;20325;-56
2023/04/28 23:28:12;;;;;;;;;;;24.90;33.90;;;;;;20841440;28;20433;-55
2023/04/28 23:38:13;;;;;;;;;;;24.60;35.80;;;;;;20840798;28;19925;-57
2023/04/28 23:48:14;;;;;;;;;;;24.30;36.00;;;;;;20839473;28;19920;-56
2023/04/28 23:58:16;;;;;;;;;;;24.20;36.30;;;;;;20839231;28;19978;-55
